createdAt,value
2018-09-25T00:00:01.481Z,3.50
2018-09-25T00:02:34.998Z,3.23
2018-09-25T00:05:08.716Z,3.40
2018-09-25T00:07:42.404Z,3.97
2018-09-25T00:10:15.984Z,3.30
2018-09-25T00:12:49.470Z,3.30
2018-09-25T00:15:23.116Z,3.57
2018-09-25T00:17:56.767Z,3.33
2018-09-25T00:20:30.348Z,3.70
2018-09-25T00:23:03.880Z,3.40
2018-09-25T00:25:37.478Z,3.00
2018-09-25T00:28:11.488Z,3.53
2018-09-25T00:30:45.069Z,2.80
2018-09-25T00:33:18.657Z,3.40
2018-09-25T00:35:52.383Z,2.90
2018-09-25T00:38:25.904Z,3.33
2018-09-25T00:40:59.466Z,3.63
2018-09-25T00:43:33.185Z,3.23
2018-09-25T00:46:06.760Z,3.60
2018-09-25T00:48:40.198Z,3.57
2018-09-25T00:51:13.976Z,3.90
2018-09-25T00:53:47.496Z,3.30
2018-09-25T00:56:21.060Z,3.63
2018-09-25T00:58:54.720Z,3.70
2018-09-25T01:01:28.730Z,3.37
2018-09-25T01:04:02.734Z,2.93
2018-09-25T01:06:36.666Z,3.37
2018-09-25T01:09:12.533Z,3.40
2018-09-25T01:11:46.502Z,3.63
2018-09-25T01:14:20.606Z,3.80
2018-09-25T01:16:54.384Z,3.57
2018-09-25T01:19:28.301Z,3.63
2018-09-25T01:22:02.274Z,3.20
2018-09-25T01:24:36.321Z,3.70
2018-09-25T01:27:10.238Z,3.47
2018-09-25T01:29:44.072Z,3.83
2018-09-25T01:32:18.121Z,4.00
2018-09-25T01:34:52.162Z,3.87
2018-09-25T01:37:26.082Z,4.20
2018-09-25T01:40:00.089Z,3.87
2018-09-25T01:42:34.145Z,4.10
2018-09-25T01:45:08.045Z,4.00
2018-09-25T01:47:41.881Z,3.60
2018-09-25T01:50:15.679Z,3.80
2018-09-25T01:52:49.589Z,4.00
2018-09-25T01:55:23.414Z,3.77
2018-09-25T01:57:57.269Z,3.40
2018-09-25T02:00:30.970Z,3.90
2018-09-25T02:03:04.764Z,4.17
2018-09-25T02:05:38.833Z,4.17
2018-09-25T02:08:12.727Z,3.90
2018-09-25T02:10:46.766Z,3.60
2018-09-25T02:13:20.634Z,4.57
2018-09-25T02:15:55.154Z,4.40
2018-09-25T02:18:29.658Z,3.90
2018-09-25T02:21:04.172Z,4.20
2018-09-25T02:23:38.599Z,5.23
2018-09-25T02:26:24.752Z,4.90
2018-09-25T02:29:00.596Z,4.53
2018-09-25T02:31:34.144Z,4.53
2018-09-25T02:34:07.735Z,4.20
2018-09-25T02:36:46.782Z,4.80
2018-09-25T02:39:20.496Z,4.23
2018-09-25T02:41:54.288Z,4.03
2018-09-25T02:44:27.983Z,4.13
2018-09-25T02:47:01.626Z,4.20
2018-09-25T02:49:35.421Z,4.07
2018-09-25T02:52:09.045Z,4.13
2018-09-25T02:54:42.586Z,4.53
2018-09-25T02:57:16.351Z,4.27
2018-09-25T02:59:49.924Z,4.63
2018-09-25T03:02:23.606Z,4.50
2018-09-25T03:04:57.405Z,5.33
2018-09-25T03:07:30.997Z,5.37
2018-09-25T03:10:04.682Z,4.70
2018-09-25T03:12:38.328Z,4.77
2018-09-25T03:15:11.861Z,3.80
2018-09-25T03:17:45.498Z,4.70
2018-09-25T03:20:19.056Z,4.10
2018-09-25T03:22:52.705Z,4.50
2018-09-25T03:25:26.402Z,4.53
2018-09-25T03:28:00.048Z,4.60
2018-09-25T03:30:33.609Z,4.53
2018-09-25T03:33:07.309Z,4.37
2018-09-25T03:35:40.895Z,4.80
2018-09-25T03:38:14.440Z,4.50
2018-09-25T03:40:48.270Z,4.30
2018-09-25T03:43:21.901Z,4.47
2018-09-25T03:45:55.494Z,4.27
2018-09-25T03:48:29.169Z,4.43
2018-09-25T03:51:02.700Z,4.47
2018-09-25T03:53:36.269Z,4.40
2018-09-25T03:56:10.044Z,4.50
2018-09-25T03:58:43.661Z,4.40
2018-09-25T04:01:17.236Z,4.23
2018-09-25T04:03:51.000Z,4.80
2018-09-25T04:06:24.686Z,4.13
2018-09-25T04:08:58.176Z,4.50
2018-09-25T04:11:31.741Z,4.63
2018-09-25T04:14:05.367Z,4.53
2018-09-25T04:16:38.957Z,4.40
2018-09-25T04:19:12.740Z,4.80
2018-09-25T04:21:46.281Z,4.43
2018-09-25T04:24:20.078Z,4.10
2018-09-25T04:26:53.919Z,4.97
2018-09-25T04:29:27.499Z,4.20
2018-09-25T04:34:47.159Z,4.60
2018-09-25T04:40:07.194Z,4.87
2018-09-25T04:42:41.203Z,5.10
2018-09-25T04:45:15.125Z,4.60
2018-09-25T04:47:48.810Z,4.27
2018-09-25T04:53:08.683Z,5.07
2018-09-25T04:55:42.309Z,4.93
2018-09-25T04:58:16.124Z,4.77
2018-09-25T05:00:49.644Z,4.97
2018-09-25T05:03:23.223Z,4.63
2018-09-25T05:05:56.995Z,4.80
2018-09-25T05:08:30.595Z,5.70
2018-09-25T05:11:04.143Z,5.87
2018-09-25T05:13:37.727Z,5.43
2018-09-25T05:16:11.879Z,5.37
2018-09-25T05:18:45.735Z,5.33
2018-09-25T05:21:19.708Z,4.80
2018-09-25T05:23:53.582Z,6.60
2018-09-25T05:26:27.442Z,5.23
2018-09-25T05:29:01.308Z,5.00
2018-09-25T05:31:35.192Z,5.40
2018-09-25T05:34:09.141Z,5.43
2018-09-25T05:36:43.110Z,5.23
2018-09-25T05:39:16.980Z,4.97
2018-09-25T05:41:50.876Z,5.27
2018-09-25T05:44:24.710Z,5.37
2018-09-25T05:46:58.649Z,5.60
2018-09-25T05:49:32.537Z,5.30
2018-09-25T05:52:06.617Z,5.40
2018-09-25T05:54:40.540Z,4.93
2018-09-25T05:57:14.421Z,7.17
2018-09-25T05:59:48.444Z,10.27
2018-09-25T06:02:22.503Z,9.00
2018-09-25T06:04:56.483Z,7.67
2018-09-25T06:07:30.389Z,7.30
2018-09-25T06:10:04.298Z,7.33
2018-09-25T06:12:38.057Z,6.40
2018-09-25T06:15:12.173Z,6.00
2018-09-25T06:17:46.104Z,5.47
2018-09-25T06:20:19.964Z,5.20
2018-09-25T06:22:53.921Z,5.57
2018-09-25T06:25:27.863Z,6.40
2018-09-25T06:28:01.937Z,5.90
2018-09-25T06:30:35.788Z,7.03
2018-09-25T06:33:09.754Z,7.90
2018-09-25T06:35:44.417Z,6.17
2018-09-25T06:38:18.522Z,7.30
2018-09-25T06:40:52.430Z,8.13
2018-09-25T06:43:26.276Z,7.43
2018-09-25T06:46:00.171Z,7.37
2018-09-25T06:48:34.059Z,8.17
2018-09-25T06:51:07.968Z,7.70
2018-09-25T06:53:41.806Z,7.10
2018-09-25T06:56:15.675Z,7.27
2018-09-25T06:58:49.614Z,7.70
2018-09-25T07:01:23.484Z,8.07
2018-09-25T07:03:57.342Z,9.10
2018-09-25T07:06:31.180Z,7.17
2018-09-25T07:09:05.045Z,8.33
2018-09-25T07:11:38.910Z,9.33
2018-09-25T07:14:12.829Z,7.87
2018-09-25T07:16:46.717Z,8.40
2018-09-25T07:22:13.492Z,8.17
2018-09-25T07:24:47.554Z,8.20
2018-09-25T07:27:21.291Z,8.30
2018-09-25T07:29:55.228Z,7.73
2018-09-25T07:32:29.095Z,7.57
2018-09-25T07:35:03.117Z,7.30
2018-09-25T07:37:49.111Z,7.20
2018-09-25T07:40:23.002Z,6.40
2018-09-25T07:42:56.780Z,6.57
2018-09-25T07:45:30.609Z,6.47
2018-09-25T07:48:04.561Z,7.43
2018-09-25T07:50:38.496Z,6.07
2018-09-25T07:53:12.470Z,5.30
2018-09-25T07:55:46.355Z,5.33
2018-09-25T07:58:20.283Z,4.93
2018-09-25T08:00:54.206Z,4.80
2018-09-25T08:03:28.092Z,4.60
2018-09-25T08:06:02.022Z,4.30
2018-09-25T08:08:35.795Z,4.40
2018-09-25T08:11:09.587Z,4.90
2018-09-25T08:13:43.464Z,4.50
2018-09-25T08:16:17.473Z,4.00
2018-09-25T08:18:51.545Z,5.67
2018-09-25T08:21:25.461Z,3.70
2018-09-25T08:23:59.398Z,3.50
2018-09-25T08:26:33.419Z,2.97
2018-09-25T08:29:07.316Z,2.97
2018-09-25T08:31:41.221Z,2.27
2018-09-25T08:34:16.749Z,1.63
2018-09-25T08:36:51.594Z,2.10
2018-09-25T08:39:25.834Z,2.53
2018-09-25T08:41:59.546Z,2.23
2018-09-25T08:44:33.546Z,2.03
2018-09-25T08:47:07.540Z,2.30
2018-09-25T08:49:41.475Z,2.23
2018-09-25T08:52:15.448Z,1.87
2018-09-25T08:54:49.327Z,1.60
2018-09-25T08:57:23.266Z,1.90
2018-09-25T08:59:57.116Z,1.50
2018-09-25T09:02:31.016Z,1.40
2018-09-25T09:05:04.942Z,2.07
2018-09-25T09:07:38.904Z,1.60
2018-09-25T09:10:13.057Z,1.00
2018-09-25T09:12:48.408Z,1.07
2018-09-25T09:15:23.323Z,1.40
2018-09-25T09:17:57.301Z,0.93
2018-09-25T09:20:32.560Z,1.00
2018-09-25T09:23:06.440Z,1.10
2018-09-25T09:25:40.365Z,0.70
2018-09-25T09:28:15.301Z,1.10
2018-09-25T09:30:49.150Z,1.13
2018-09-25T09:33:23.089Z,1.27
2018-09-25T09:35:57.141Z,1.40
2018-09-25T09:38:32.454Z,0.80
2018-09-25T09:41:06.396Z,0.80
2018-09-25T09:43:40.416Z,1.30
2018-09-25T09:46:14.305Z,0.80
2018-09-25T09:48:48.325Z,1.10
2018-09-25T09:51:22.223Z,1.10
2018-09-25T09:53:56.209Z,1.10
2018-09-25T09:56:30.142Z,1.20
2018-09-25T09:59:05.636Z,1.23
2018-09-25T10:01:39.401Z,1.00
2018-09-25T10:04:13.281Z,1.10
2018-09-25T10:06:47.173Z,1.20
2018-09-25T10:09:22.020Z,1.20
2018-09-25T10:11:55.984Z,1.10
2018-09-25T10:17:22.669Z,1.23
2018-09-25T10:19:56.523Z,1.30
2018-09-25T10:22:30.492Z,1.93
2018-09-25T10:25:04.304Z,1.03
2018-09-25T10:27:38.208Z,1.10
2018-09-25T10:30:12.343Z,1.50
2018-09-25T10:32:46.313Z,1.27
2018-09-25T10:35:20.149Z,1.00
2018-09-25T10:37:54.121Z,1.50
2018-09-25T10:40:27.965Z,1.13
2018-09-25T10:43:01.838Z,0.93
2018-09-25T10:45:35.783Z,1.40
2018-09-25T10:48:09.662Z,1.60
2018-09-25T10:50:43.631Z,1.07
2018-09-25T10:53:17.588Z,0.90
2018-09-25T10:55:51.579Z,1.00
2018-09-25T10:58:25.417Z,1.00
2018-09-25T11:00:59.861Z,1.13
2018-09-25T11:03:34.786Z,1.10
2018-09-25T11:06:08.792Z,1.30
2018-09-25T11:08:42.676Z,0.87
2018-09-25T11:11:16.592Z,1.10
2018-09-25T11:13:50.533Z,1.00
2018-09-25T11:16:24.347Z,0.90
2018-09-25T11:18:58.286Z,0.97
2018-09-25T11:21:32.104Z,1.37
2018-09-25T11:24:06.025Z,1.30
2018-09-25T11:26:41.873Z,1.10
2018-09-25T11:29:23.856Z,1.10
2018-09-25T11:31:59.533Z,1.50
2018-09-25T11:34:33.815Z,1.10
2018-09-25T11:37:07.842Z,1.13
2018-09-25T11:39:43.901Z,1.73
2018-09-25T11:42:17.895Z,1.53
2018-09-25T11:44:51.744Z,1.23
2018-09-25T11:47:25.632Z,1.27
2018-09-25T11:49:59.624Z,1.40
2018-09-25T11:52:33.476Z,0.93
2018-09-25T11:55:07.271Z,1.33
2018-09-25T12:00:34.165Z,1.00
2018-09-25T12:03:08.143Z,1.37
2018-09-25T12:05:42.085Z,0.97
2018-09-25T12:08:16.109Z,1.03
2018-09-25T12:10:50.030Z,1.10
2018-09-25T12:13:23.965Z,1.70
2018-09-25T12:15:58.014Z,0.90
2018-09-25T12:18:32.032Z,1.07
2018-09-25T12:21:05.909Z,1.20
2018-09-25T12:23:39.697Z,0.90
2018-09-25T12:26:13.553Z,1.30
2018-09-25T12:31:41.079Z,1.20
2018-09-25T12:34:14.861Z,1.07
2018-09-25T12:36:48.794Z,0.97
2018-09-25T12:39:22.653Z,0.90
2018-09-25T12:41:56.496Z,1.10
2018-09-25T12:44:30.558Z,1.20
2018-09-25T12:47:04.503Z,0.93
2018-09-25T12:49:38.575Z,1.23
2018-09-25T12:52:12.464Z,0.97
2018-09-25T12:54:46.555Z,1.30
2018-09-25T12:57:20.550Z,1.47
2018-09-25T12:59:54.395Z,1.30
2018-09-25T13:02:28.293Z,1.20
2018-09-25T13:05:02.162Z,1.03
2018-09-25T13:07:35.978Z,1.40
2018-09-25T13:10:09.842Z,0.90
2018-09-25T13:12:43.697Z,0.90
2018-09-25T13:15:17.533Z,1.30
2018-09-25T13:17:51.424Z,1.13
2018-09-25T13:20:25.490Z,1.00
2018-09-25T13:22:59.284Z,1.30
2018-09-25T13:25:33.076Z,1.10
2018-09-25T13:28:06.951Z,1.23
2018-09-25T13:30:40.921Z,1.17
2018-09-25T13:33:15.891Z,0.90
2018-09-25T13:35:49.753Z,1.03
2018-09-25T13:38:23.569Z,1.20
2018-09-25T13:40:57.457Z,0.90
2018-09-25T13:43:31.437Z,1.10
2018-09-25T13:46:05.376Z,1.87
2018-09-25T13:48:39.238Z,0.90
2018-09-25T13:51:13.159Z,1.17
2018-09-25T13:53:47.166Z,1.10
2018-09-25T13:56:21.085Z,1.23
2018-09-25T13:58:54.971Z,1.10
2018-09-25T14:01:30.243Z,0.90
2018-09-25T14:04:04.086Z,0.93
2018-09-25T14:06:38.097Z,1.10
2018-09-25T14:09:14.881Z,1.03
2018-09-25T14:11:49.174Z,1.13
2018-09-25T14:14:22.945Z,0.93
2018-09-25T14:16:56.797Z,1.07
2018-09-25T14:19:30.636Z,1.07
2018-09-25T14:22:04.581Z,1.00
2018-09-25T14:24:38.549Z,1.03
2018-09-25T14:27:12.565Z,1.07
2018-09-25T14:29:46.546Z,1.00
2018-09-25T14:32:21.936Z,0.97
2018-09-25T14:34:55.895Z,1.20
2018-09-25T14:37:29.785Z,1.20
2018-09-25T14:40:10.524Z,1.27
2018-09-25T14:42:44.572Z,0.87
2018-09-25T14:45:18.546Z,1.03
2018-09-25T14:47:52.485Z,1.00
2018-09-25T14:50:26.365Z,1.10
2018-09-25T14:53:08.089Z,1.27
2018-09-25T14:55:41.948Z,1.03
2018-09-25T14:58:16.590Z,1.10
2018-09-25T15:00:50.683Z,0.90
2018-09-25T15:03:24.628Z,0.97
2018-09-25T15:05:58.620Z,1.00
2018-09-25T15:08:32.600Z,1.10
2018-09-25T15:11:08.004Z,1.37
2018-09-25T15:13:41.893Z,1.00
2018-09-25T15:16:15.794Z,1.10
2018-09-25T15:18:49.702Z,1.37
2018-09-25T15:21:23.656Z,1.00
2018-09-25T15:24:01.116Z,0.90
2018-09-25T15:26:35.044Z,0.83
2018-09-25T15:29:08.988Z,0.90
2018-09-25T15:31:43.019Z,0.93
2018-09-25T15:34:16.961Z,1.20
2018-09-25T15:36:50.900Z,1.57
2018-09-25T15:39:24.775Z,1.23
2018-09-25T15:41:59.136Z,1.50
2018-09-25T15:44:33.096Z,1.20
2018-09-25T15:47:06.980Z,1.20
2018-09-25T15:49:40.981Z,1.10
2018-09-25T15:52:15.434Z,0.93
2018-09-25T15:54:49.442Z,1.17
2018-09-25T15:57:23.494Z,0.67
2018-09-25T15:59:58.187Z,1.13
2018-09-25T16:02:32.000Z,0.90
2018-09-25T16:05:05.885Z,1.27
2018-09-25T16:07:41.002Z,1.07
2018-09-25T16:10:14.967Z,0.80
2018-09-25T16:12:48.864Z,1.37
2018-09-25T16:15:23.056Z,0.87
2018-09-25T16:17:56.979Z,0.87
2018-09-25T16:20:31.087Z,0.80
2018-09-25T16:23:06.397Z,1.10
2018-09-25T16:25:40.328Z,1.00
2018-09-25T16:28:15.006Z,0.97
2018-09-25T16:30:49.761Z,1.00
2018-09-25T16:33:23.734Z,1.60
2018-09-25T16:35:57.664Z,0.90
2018-09-25T16:38:31.784Z,1.20
2018-09-25T16:41:05.694Z,0.70
2018-09-25T16:43:39.627Z,1.43
2018-09-25T16:46:13.450Z,1.00
2018-09-25T16:48:47.390Z,1.13
2018-09-25T16:51:21.339Z,0.80
2018-09-25T16:53:55.117Z,0.80
2018-09-25T16:56:29.321Z,1.20
2018-09-25T16:59:03.261Z,1.10
2018-09-25T17:01:45.508Z,1.13
2018-09-25T17:04:20.833Z,1.10
2018-09-25T17:06:54.644Z,1.30
2018-09-25T17:09:28.584Z,1.20
2018-09-25T17:12:03.596Z,1.17
2018-09-25T17:14:37.623Z,2.00
2018-09-25T17:17:13.647Z,1.30
2018-09-25T17:19:48.462Z,1.30
2018-09-25T17:22:22.519Z,1.10
2018-09-25T17:24:56.432Z,1.60
2018-09-25T17:27:30.317Z,1.33
2018-09-25T17:30:04.290Z,1.03
2018-09-25T17:32:38.224Z,1.40
2018-09-25T17:35:18.100Z,1.60
2018-09-25T17:37:52.088Z,2.30
2018-09-25T17:40:32.678Z,1.90
2018-09-25T17:51:46.370Z,3.40
2018-09-25T17:54:20.301Z,1.50
2018-09-25T17:56:54.165Z,2.00
2018-09-25T17:59:28.034Z,2.40
2018-09-25T18:02:01.982Z,1.60
2018-09-25T18:04:35.834Z,2.47
2018-09-25T18:07:09.941Z,3.40
2018-09-25T18:09:43.810Z,1.80
2018-09-25T18:12:17.674Z,1.63
2018-09-25T18:14:51.593Z,2.70
2018-09-25T18:17:25.644Z,2.67
2018-09-25T18:19:59.470Z,3.40
2018-09-25T18:22:33.372Z,2.63
2018-09-25T18:25:07.326Z,5.47
2018-09-25T18:27:41.331Z,2.70
2018-09-25T18:30:15.358Z,2.10
2018-09-25T18:32:49.289Z,3.80
2018-09-25T18:41:10.524Z,1.97
2018-09-25T18:43:44.486Z,1.23
2018-09-25T18:46:18.433Z,1.33
2018-09-25T18:48:55.848Z,1.70
2018-09-25T18:51:29.815Z,1.60
2018-09-25T18:54:16.645Z,2.13
2018-09-25T18:56:50.534Z,1.67
2018-09-25T18:59:24.469Z,1.87
2018-09-25T19:01:58.281Z,2.10
2018-09-25T19:04:32.173Z,2.50
2018-09-25T19:07:05.978Z,2.10
2018-09-25T19:09:39.721Z,2.80
2018-09-25T19:12:13.611Z,2.07
2018-09-25T19:14:47.521Z,2.20
2018-09-25T19:17:21.444Z,1.60
2018-09-25T19:19:56.113Z,1.87
2018-09-25T19:22:30.340Z,1.77
2018-09-25T19:25:04.277Z,3.00
2018-09-25T19:27:38.255Z,5.50
2018-09-25T19:30:12.246Z,4.30
2018-09-25T19:32:49.662Z,1.53
2018-09-25T19:35:23.502Z,1.93
2018-09-25T19:37:57.369Z,2.37
2018-09-25T19:40:31.258Z,2.03
2018-09-25T19:43:05.202Z,3.00
2018-09-25T19:45:39.148Z,2.23
2018-09-25T19:48:13.069Z,2.40
2018-09-25T19:50:47.068Z,2.00
2018-09-25T19:53:21.038Z,2.27
2018-09-25T19:55:54.878Z,2.00
2018-09-25T19:58:28.716Z,1.63
2018-09-25T20:01:02.565Z,1.80
2018-09-25T20:03:36.364Z,1.63
2018-09-25T20:06:10.320Z,2.53
2018-09-25T20:08:45.167Z,3.57
2018-09-25T20:11:19.156Z,1.93
2018-09-25T20:13:53.036Z,2.27
2018-09-25T20:16:26.949Z,2.10
2018-09-25T20:19:00.833Z,2.23
2018-09-25T20:21:34.853Z,2.10
2018-09-25T20:24:08.698Z,2.03
2018-09-25T20:26:42.598Z,2.00
2018-09-25T20:29:16.475Z,1.73
2018-09-25T20:31:50.448Z,1.83
2018-09-25T20:34:24.429Z,2.10
2018-09-25T20:36:58.310Z,1.60
2018-09-25T20:39:32.281Z,2.30
2018-09-25T20:42:06.167Z,1.83
2018-09-25T20:44:40.033Z,2.87
2018-09-25T20:47:13.957Z,2.53
2018-09-25T20:49:47.963Z,2.37
2018-09-25T20:52:21.658Z,2.13
2018-09-25T20:54:55.421Z,2.27
2018-09-25T20:57:29.389Z,2.87
2018-09-25T21:00:03.281Z,2.33
2018-09-25T21:02:37.198Z,2.50
2018-09-25T21:05:11.081Z,2.10
2018-09-25T21:07:44.817Z,2.60
2018-09-25T21:10:18.782Z,2.80
2018-09-25T21:12:52.856Z,2.33
2018-09-25T21:15:26.685Z,2.00
2018-09-25T21:18:00.578Z,2.40
2018-09-25T21:20:34.511Z,2.50
2018-09-25T21:23:08.385Z,2.33
2018-09-25T21:25:42.242Z,3.30
2018-09-25T21:28:16.167Z,4.13
2018-09-25T21:30:50.092Z,2.60
2018-09-25T21:33:23.931Z,2.77
2018-09-25T21:35:58.024Z,3.17
2018-09-25T21:38:31.892Z,3.67
2018-09-25T21:41:05.929Z,2.27
2018-09-25T21:43:39.897Z,2.87
2018-09-25T21:46:13.825Z,2.53
2018-09-25T21:51:40.583Z,5.10
2018-09-25T21:54:14.525Z,3.97
2018-09-25T21:56:48.511Z,3.80
2018-09-25T21:59:22.377Z,4.50
2018-09-25T22:01:56.310Z,3.73
2018-09-25T22:04:30.226Z,4.43
2018-09-25T22:07:04.077Z,4.87
2018-09-25T22:09:38.053Z,4.90
2018-09-25T22:12:11.932Z,4.23
2018-09-25T22:14:46.002Z,2.87
2018-09-25T22:17:19.894Z,3.03
2018-09-25T22:19:53.649Z,3.20
2018-09-25T22:22:27.612Z,2.90
2018-09-25T22:25:01.619Z,2.90
2018-09-25T22:27:35.514Z,2.50
2018-09-25T22:30:09.635Z,2.50
2018-09-25T22:32:43.625Z,2.77
2018-09-25T22:35:17.669Z,2.60
2018-09-25T22:37:51.589Z,3.53
2018-09-25T22:40:25.503Z,2.67
2018-09-25T22:42:59.442Z,2.63
2018-09-25T22:45:33.500Z,3.60
2018-09-25T22:48:07.392Z,3.10
2018-09-25T22:50:41.323Z,3.13
2018-09-25T22:53:15.244Z,3.00
2018-09-25T22:55:49.188Z,2.90
2018-09-25T22:58:23.125Z,3.23
2018-09-25T23:00:57.034Z,2.63
2018-09-25T23:03:30.905Z,2.87
2018-09-25T23:06:04.857Z,2.43
2018-09-25T23:08:38.857Z,2.67
2018-09-25T23:11:12.993Z,3.07
2018-09-25T23:13:47.023Z,3.00
2018-09-25T23:16:20.925Z,3.00
2018-09-25T23:18:54.775Z,2.80
2018-09-25T23:21:28.718Z,3.00
2018-09-25T23:24:02.488Z,2.43
2018-09-25T23:26:36.417Z,3.60
2018-09-25T23:29:10.303Z,3.30
2018-09-25T23:31:44.238Z,2.40
2018-09-25T23:34:18.325Z,3.37
2018-09-25T23:36:52.352Z,2.90
2018-09-25T23:39:26.363Z,2.57
2018-09-25T23:41:59.241Z,3.10
2018-09-25T23:44:33.205Z,3.20
2018-09-25T23:47:07.823Z,2.53
2018-09-25T23:49:41.666Z,2.80
2018-09-25T23:52:15.363Z,2.47
2018-09-25T23:55:47.065Z,3.40
2018-09-25T23:58:22.023Z,3.43
